Time;durP1;ratioP1;P1;durP2;ratioP2;P2;SDS_P1;SDS_P2;PMS_P1;PMS_P2;Temp;Humidity;BMP_temperature;BMP_pressure;BME280_temperature;BME280_humidity;BME280_pressure;Samples;Min_cycle;Max_cycle;Signal;HPM_P1;HPM_P2
2022/02/18 00:00:33;;;;;;;0.70;0.60;;;;;;;;;;5044600;28;20462;-76
2022/02/18 00:03:01;;;;;;;0.70;0.60;;;;;;;;;;5060876;28;20476;-75
2022/02/18 00:05:29;;;;;;;0.63;0.57;;;;;;;;;;5078801;28;20481;-76
2022/02/18 00:08:03;;;;;;;0.60;0.60;;;;;;;;;;5073354;28;21065;-76
2022/02/18 00:10:31;;;;;;;0.63;0.60;;;;;;;;;;5075732;28;20439;-75
2022/02/18 00:12:58;;;;;;;0.60;0.60;;;;;;;;;;5063461;28;20520;-77
2022/02/18 00:15:27;;;;;;;0.70;0.70;;;;;;;;;;5057466;28;20440;-77
2022/02/18 00:17:54;;;;;;;0.70;0.70;;;;;;;;;;5058052;28;20516;-77
2022/02/18 00:20:20;;;;;;;0.63;0.60;;;;;;;;;;5041547;28;20585;-77
2022/02/18 00:22:51;;;;;;;0.60;0.60;;;;;;;;;;5058893;28;20612;-77
2022/02/18 00:25:20;;;;;;;0.60;0.60;;;;;;;;;;5071550;28;20434;-77
2022/02/18 00:27:50;;;;;;;0.70;0.60;;;;;;;;;;5067185;28;20461;-75
2022/02/18 00:30:17;;;;;;;0.67;0.60;;;;;;;;;;5075354;28;20522;-78
2022/02/18 00:32:43;;;;;;;0.60;0.60;;;;;;;;;;5056695;28;20445;-75
2022/02/18 00:35:10;;;;;;;1.53;1.03;;;;;;;;;;5065395;28;20537;-75
2022/02/18 00:37:37;;;;;;;0.70;0.60;;;;;;;;;;5073944;28;20452;-77
2022/02/18 00:40:05;;;;;;;0.67;0.60;;;;;;;;;;5074628;28;20466;-77
2022/02/18 00:42:32;;;;;;;0.70;0.70;;;;;;;;;;5076046;28;20454;-76
2022/02/18 00:45:00;;;;;;;0.60;0.60;;;;;;;;;;5058881;28;20454;-77
2022/02/18 00:47:26;;;;;;;0.60;0.60;;;;;;;;;;5058350;28;20538;-77
2022/02/18 00:49:53;;;;;;;0.90;0.90;;;;;;;;;;5057238;28;20842;-77
2022/02/18 00:52:20;;;;;;;0.60;0.60;;;;;;;;;;5044886;28;20459;-77
2022/02/18 00:54:47;;;;;;;0.60;0.60;;;;;;;;;;5056253;28;20447;-76
2022/02/18 00:57:14;;;;;;;0.60;0.60;;;;;;;;;;5074562;28;20507;-77
2022/02/18 00:59:41;;;;;;;0.60;0.60;;;;;;;;;;5073897;28;20461;-75
2022/02/18 01:02:09;;;;;;;0.70;0.70;;;;;;;;;;5075097;28;20487;-76
2022/02/18 01:04:37;;;;;;;0.70;0.70;;;;;;;;;;5067013;28;20833;-75
2022/02/18 01:07:05;;;;;;;0.60;0.60;;;;;;;;;;5075004;28;20472;-77
2022/02/18 01:09:34;;;;;;;0.60;0.60;;;;;;;;;;5075112;28;20450;-74
2022/02/18 01:12:03;;;;;;;0.60;0.60;;;;;;;;;;5075033;28;20522;-75
2022/02/18 01:14:31;;;;;;;0.60;0.60;;;;;;;;;;5074512;28;20438;-75
2022/02/18 01:17:00;;;;;;;0.60;0.57;;;;;;;;;;5072994;28;20447;-75
2022/02/18 01:19:28;;;;;;;0.60;0.60;;;;;;;;;;5074563;28;20457;-76
2022/02/18 01:22:01;;;;;;;0.70;0.60;;;;;;;;;;5074965;28;20474;-75
2022/02/18 01:24:28;;;;;;;0.70;0.60;;;;;;;;;;5074328;28;20444;-75
2022/02/18 01:26:55;;;;;;;0.60;0.60;;;;;;;;;;5072251;28;20423;-76
2022/02/18 01:29:21;;;;;;;0.60;0.60;;;;;;;;;;5072860;28;20510;-75
2022/02/18 01:31:48;;;;;;;0.60;0.60;;;;;;;;;;5055709;28;20444;-76
2022/02/18 01:34:15;;;;;;;0.70;0.60;;;;;;;;;;5038200;28;20434;-76
2022/02/18 01:36:46;;;;;;;0.60;0.60;;;;;;;;;;5073131;28;20501;-75
2022/02/18 01:39:13;;;;;;;0.70;0.60;;;;;;;;;;5073935;28;20566;-75
2022/02/18 01:41:42;;;;;;;0.70;0.60;;;;;;;;;;5073409;28;20472;-76
2022/02/18 01:44:30;;;;;;;0.67;0.60;;;;;;;;;;5073426;28;21017;-76
2022/02/18 01:47:01;;;;;;;0.60;0.60;;;;;;;;;;5073770;28;20407;-75
2022/02/18 01:49:31;;;;;;;0.60;0.60;;;;;;;;;;5055377;28;20514;-75
2022/02/18 01:52:02;;;;;;;0.60;0.60;;;;;;;;;;5056531;28;20580;-76
2022/02/18 01:54:35;;;;;;;0.60;0.60;;;;;;;;;;5061274;28;20547;-77
2022/02/18 01:57:04;;;;;;;0.60;0.60;;;;;;;;;;5053144;28;20451;-77
2022/02/18 01:59:33;;;;;;;0.70;0.60;;;;;;;;;;5055114;28;20798;-77
2022/02/18 02:02:01;;;;;;;0.60;0.60;;;;;;;;;;5052910;28;20494;-76
2022/02/18 02:04:33;;;;;;;0.60;0.57;;;;;;;;;;5055709;28;20466;-75
2022/02/18 02:07:14;;;;;;;0.60;0.50;;;;;;;;;;5057446;28;20471;-76
2022/02/18 02:09:47;;;;;;;0.60;0.60;;;;;;;;;;5072630;28;20542;-75
2022/02/18 02:12:16;;;;;;;0.60;0.60;;;;;;;;;;5070510;28;20474;-76
2022/02/18 02:14:51;;;;;;;0.60;0.60;;;;;;;;;;5072759;28;20482;-76
2022/02/18 02:17:28;;;;;;;0.63;0.60;;;;;;;;;;5055698;28;20444;-75
2022/02/18 02:20:14;;;;;;;0.70;0.60;;;;;;;;;;5068338;28;20528;-77
2022/02/18 02:22:47;;;;;;;0.60;0.60;;;;;;;;;;5061682;28;20451;-76
2022/02/18 02:25:21;;;;;;;0.70;0.60;;;;;;;;;;5052168;28;20448;-76
2022/02/18 02:28:20;;;;;;;0.67;0.60;;;;;;;;;;5054337;28;20391;-75
2022/02/18 02:30:53;;;;;;;0.60;0.60;;;;;;;;;;5052889;28;20440;-77
2022/02/18 02:33:24;;;;;;;0.70;0.60;;;;;;;;;;5053073;28;20483;-76
2022/02/18 02:35:55;;;;;;;0.70;0.63;;;;;;;;;;5067693;28;20549;-76
2022/02/18 02:38:30;;;;;;;0.67;0.60;;;;;;;;;;5055106;28;20448;-75
2022/02/18 02:41:04;;;;;;;0.60;0.60;;;;;;;;;;5072655;28;20478;-76
2022/02/18 02:43:35;;;;;;;0.70;0.60;;;;;;;;;;5056151;28;20450;-76
2022/02/18 02:46:07;;;;;;;0.60;0.60;;;;;;;;;;5072448;28;20467;-76
2022/02/18 02:48:40;;;;;;;0.70;0.60;;;;;;;;;;5056028;28;20466;-79
2022/02/18 02:51:20;;;;;;;0.70;0.60;;;;;;;;;;5037350;28;20987;-75
2022/02/18 02:53:49;;;;;;;0.60;0.60;;;;;;;;;;5053292;28;20531;-76
2022/02/18 02:56:16;;;;;;;0.60;0.60;;;;;;;;;;5063869;28;20894;-77
2022/02/18 02:58:43;;;;;;;0.60;0.60;;;;;;;;;;5071714;28;20448;-75
2022/02/18 03:01:11;;;;;;;0.60;0.60;;;;;;;;;;5089123;28;20975;-76
2022/02/18 03:03:43;;;;;;;0.70;0.60;;;;;;;;;;5056021;28;20443;-76
2022/02/18 03:06:10;;;;;;;0.70;0.60;;;;;;;;;;5072710;28;20443;-75
2022/02/18 03:08:37;;;;;;;0.70;0.60;;;;;;;;;;5059313;28;20435;-75
2022/02/18 03:11:16;;;;;;;0.60;0.57;;;;;;;;;;5056952;28;20969;-75
2022/02/18 03:14:16;;;;;;;0.70;0.60;;;;;;;;;;5060377;28;20439;-75
2022/02/18 03:17:15;;;;;;;0.60;0.60;;;;;;;;;;5077649;28;20450;-74
2022/02/18 03:19:42;;;;;;;0.70;0.60;;;;;;;;;;5072615;28;20817;-75
2022/02/18 03:22:11;;;;;;;0.60;0.60;;;;;;;;;;5072583;28;20561;-75
2022/02/18 03:24:38;;;;;;;0.60;0.60;;;;;;;;;;5074879;28;20427;-75
2022/02/18 03:27:08;;;;;;;0.70;0.60;;;;;;;;;;5059326;28;20446;-75
2022/02/18 03:29:39;;;;;;;0.60;0.60;;;;;;;;;;5055883;28;20435;-76
2022/02/18 03:32:21;;;;;;;0.60;0.60;;;;;;;;;;5056107;28;20432;-75
2022/02/18 03:34:48;;;;;;;0.60;0.60;;;;;;;;;;5064349;28;20447;-75
2022/02/18 03:37:18;;;;;;;0.70;0.60;;;;;;;;;;5075809;28;20823;-76
2022/02/18 03:39:44;;;;;;;0.70;0.60;;;;;;;;;;5075792;28;20439;-75
2022/02/18 03:42:13;;;;;;;0.70;0.60;;;;;;;;;;5059501;28;20460;-75
2022/02/18 03:44:40;;;;;;;0.63;0.60;;;;;;;;;;5075515;28;20465;-75
2022/02/18 03:47:10;;;;;;;0.63;0.60;;;;;;;;;;5075716;28;20439;-77
2022/02/18 03:49:38;;;;;;;0.60;0.60;;;;;;;;;;5059761;28;20446;-77
2022/02/18 03:52:06;;;;;;;0.70;0.60;;;;;;;;;;5072617;28;20491;-77
2022/02/18 03:54:35;;;;;;;0.60;0.60;;;;;;;;;;5075237;28;20439;-75
2022/02/18 03:57:02;;;;;;;0.70;0.60;;;;;;;;;;5076154;28;21337;-77
2022/02/18 03:59:31;;;;;;;0.70;0.60;;;;;;;;;;5069567;28;20784;-78
2022/02/18 04:02:00;;;;;;;0.70;0.60;;;;;;;;;;5059435;28;20471;-77
2022/02/18 04:04:28;;;;;;;0.60;0.60;;;;;;;;;;5075582;28;20453;-75
2022/02/18 04:07:17;;;;;;;0.60;0.60;;;;;;;;;;5066203;28;20491;-76
2022/02/18 04:09:50;;;;;;;0.70;0.60;;;;;;;;;;5069999;28;20468;-76
2022/02/18 04:12:21;;;;;;;0.60;0.60;;;;;;;;;;5057905;28;20479;-75
2022/02/18 04:14:53;;;;;;;0.60;0.60;;;;;;;;;;5064178;28;20974;-76
2022/02/18 04:17:24;;;;;;;0.63;0.60;;;;;;;;;;5069144;28;20447;-75
2022/02/18 04:20:11;;;;;;;0.70;0.60;;;;;;;;;;5056399;28;20433;-77
2022/02/18 04:22:58;;;;;;;0.60;0.60;;;;;;;;;;5055137;28;20888;-77
2022/02/18 04:25:33;;;;;;;0.60;0.60;;;;;;;;;;5057374;28;20943;-77
2022/02/18 04:28:00;;;;;;;0.70;0.60;;;;;;;;;;5055163;28;20432;-77
2022/02/18 04:30:29;;;;;;;0.70;0.60;;;;;;;;;;5055323;28;20448;-77
2022/02/18 04:32:56;;;;;;;0.60;0.50;;;;;;;;;;5056277;28;20463;-75
2022/02/18 04:35:22;;;;;;;0.60;0.60;;;;;;;;;;5066377;28;20947;-76
2022/02/18 04:37:49;;;;;;;0.70;0.60;;;;;;;;;;5067462;28;20467;-76
2022/02/18 04:40:16;;;;;;;0.70;0.60;;;;;;;;;;5076526;28;20480;-77
2022/02/18 04:42:43;;;;;;;0.70;0.60;;;;;;;;;;5075623;28;20462;-77
2022/02/18 04:45:11;;;;;;;0.70;0.60;;;;;;;;;;5074592;28;20473;-77
2022/02/18 04:47:41;;;;;;;0.60;0.60;;;;;;;;;;5074954;28;20455;-74
2022/02/18 04:50:09;;;;;;;0.60;0.50;;;;;;;;;;5074632;28;20518;-77
2022/02/18 04:52:37;;;;;;;0.60;0.60;;;;;;;;;;5091726;28;20513;-77
2022/02/18 04:55:06;;;;;;;0.70;0.60;;;;;;;;;;5055966;28;20444;-77
2022/02/18 04:57:33;;;;;;;0.60;0.60;;;;;;;;;;5055107;28;20998;-76
2022/02/18 04:59:59;;;;;;;0.60;0.60;;;;;;;;;;5074604;28;20506;-77
2022/02/18 05:02:27;;;;;;;0.70;0.70;;;;;;;;;;5074346;28;20811;-77
2022/02/18 05:04:55;;;;;;;0.60;0.60;;;;;;;;;;5071724;28;20430;-77
2022/02/18 05:07:21;;;;;;;0.70;0.60;;;;;;;;;;5088498;28;20538;-77
2022/02/18 05:09:51;;;;;;;0.67;0.60;;;;;;;;;;5074807;28;20489;-77
2022/02/18 05:12:18;;;;;;;0.70;0.60;;;;;;;;;;5074479;28;20435;-76
2022/02/18 05:14:45;;;;;;;0.60;0.60;;;;;;;;;;5062963;28;20993;-77
2022/02/18 05:17:12;;;;;;;0.70;0.60;;;;;;;;;;5075090;28;20438;-77
2022/02/18 05:19:39;;;;;;;0.70;0.60;;;;;;;;;;5075585;28;20411;-77
2022/02/18 05:22:07;;;;;;;0.70;0.60;;;;;;;;;;5071166;28;20473;-77
2022/02/18 05:24:34;;;;;;;0.60;0.60;;;;;;;;;;5072953;28;20530;-77
2022/02/18 05:27:01;;;;;;;0.60;0.60;;;;;;;;;;5071900;28;20855;-76
2022/02/18 05:29:29;;;;;;;0.70;0.60;;;;;;;;;;5055926;28;20435;-77
2022/02/18 05:31:56;;;;;;;0.60;0.60;;;;;;;;;;5073351;28;21023;-77
2022/02/18 05:34:22;;;;;;;0.60;0.60;;;;;;;;;;5056011;28;20564;-77
2022/02/18 05:36:50;;;;;;;0.60;0.60;;;;;;;;;;5091756;28;20497;-77
2022/02/18 05:39:17;;;;;;;0.70;0.60;;;;;;;;;;5056984;28;20867;-76
2022/02/18 05:41:45;;;;;;;0.60;0.60;;;;;;;;;;5055069;28;20497;-77
2022/02/18 05:44:11;;;;;;;0.70;0.60;;;;;;;;;;5054995;28;20420;-77
2022/02/18 05:46:40;;;;;;;0.60;0.60;;;;;;;;;;5061395;28;20427;-77
2022/02/18 05:49:08;;;;;;;0.70;0.60;;;;;;;;;;5074878;28;20525;-77
2022/02/18 05:51:36;;;;;;;0.60;0.60;;;;;;;;;;5073821;28;20447;-77
2022/02/18 05:54:03;;;;;;;0.60;0.60;;;;;;;;;;5069706;28;21015;-76
2022/02/18 05:56:31;;;;;;;0.63;0.60;;;;;;;;;;5054537;28;20855;-76
2022/02/18 05:58:58;;;;;;;0.70;0.60;;;;;;;;;;5054459;28;20420;-75
2022/02/18 06:01:25;;;;;;;0.60;0.60;;;;;;;;;;5057173;28;20421;-75
2022/02/18 06:03:52;;;;;;;0.60;0.60;;;;;;;;;;5072368;28;20470;-75
2022/02/18 06:06:18;;;;;;;0.60;0.60;;;;;;;;;;5074798;28;20453;-75
2022/02/18 06:08:46;;;;;;;0.60;0.60;;;;;;;;;;5069978;28;21070;-76
2022/02/18 06:11:13;;;;;;;0.70;0.60;;;;;;;;;;5044773;28;20444;-75
2022/02/18 06:13:41;;;;;;;0.63;0.60;;;;;;;;;;5065734;28;20990;-76
2022/02/18 06:16:08;;;;;;;0.70;0.60;;;;;;;;;;5054859;28;20500;-75
2022/02/18 06:18:35;;;;;;;0.70;0.70;;;;;;;;;;5053511;28;20467;-75
2022/02/18 06:21:03;;;;;;;0.60;0.60;;;;;;;;;;5054332;28;20424;-75
2022/02/18 06:23:30;;;;;;;0.60;0.60;;;;;;;;;;5054269;28;20452;-74
2022/02/18 06:25:57;;;;;;;0.60;0.50;;;;;;;;;;5056465;28;20756;-72
2022/02/18 06:28:24;;;;;;;0.60;0.50;;;;;;;;;;5056243;28;20504;-73
2022/02/18 06:30:52;;;;;;;0.60;0.60;;;;;;;;;;5073342;28;20765;-73
2022/02/18 06:33:19;;;;;;;0.60;0.60;;;;;;;;;;5074365;28;20491;-73
2022/02/18 06:35:46;;;;;;;0.60;0.60;;;;;;;;;;5058007;28;20964;-73
2022/02/18 06:38:13;;;;;;;1.43;1.33;;;;;;;;;;5068060;28;20485;-73
2022/02/18 06:40:46;;;;;;;0.60;0.60;;;;;;;;;;5072556;28;20472;-73
2022/02/18 06:43:12;;;;;;;0.60;0.53;;;;;;;;;;5043987;28;20547;-73
2022/02/18 06:45:39;;;;;;;0.60;0.50;;;;;;;;;;5052482;28;20474;-73
2022/02/18 06:48:09;;;;;;;0.60;0.60;;;;;;;;;;5054225;28;20431;-73
2022/02/18 06:50:35;;;;;;;0.60;0.60;;;;;;;;;;5054416;28;20416;-72
2022/02/18 06:53:05;;;;;;;0.60;0.60;;;;;;;;;;5053991;28;20499;-73
2022/02/18 06:55:32;;;;;;;0.60;0.60;;;;;;;;;;5052797;28;20534;-74
2022/02/18 06:58:01;;;;;;;0.60;0.60;;;;;;;;;;5053880;28;20428;-73
2022/02/18 07:00:28;;;;;;;0.60;0.50;;;;;;;;;;5052680;28;20533;-72
2022/02/18 07:02:56;;;;;;;0.60;0.60;;;;;;;;;;5052610;28;20467;-73
2022/02/18 07:05:28;;;;;;;0.60;0.60;;;;;;;;;;5065333;28;20946;-74
2022/02/18 07:07:55;;;;;;;0.60;0.60;;;;;;;;;;5073547;28;20554;-73
2022/02/18 07:10:43;;;;;;;0.60;0.60;;;;;;;;;;5072708;28;20815;-72
2022/02/18 07:13:09;;;;;;;0.60;0.60;;;;;;;;;;5074071;28;20495;-73
2022/02/18 07:15:36;;;;;;;0.60;0.60;;;;;;;;;;5060584;28;20538;-73
2022/02/18 07:18:03;;;;;;;1.10;0.83;;;;;;;;;;5052824;28;20420;-73
2022/02/18 07:20:32;;;;;;;0.60;0.60;;;;;;;;;;5052540;28;20439;-72
2022/02/18 07:22:59;;;;;;;0.60;0.60;;;;;;;;;;5053340;28;20486;-74
2022/02/18 07:25:26;;;;;;;0.60;0.50;;;;;;;;;;5052640;28;20451;-74
2022/02/18 07:27:53;;;;;;;0.60;0.60;;;;;;;;;;5053808;28;20413;-75
2022/02/18 07:30:22;;;;;;;0.60;0.60;;;;;;;;;;5054495;28;20493;-74
2022/02/18 07:32:49;;;;;;;0.60;0.50;;;;;;;;;;5053929;28;20950;-75
2022/02/18 07:35:16;;;;;;;0.60;0.60;;;;;;;;;;5053265;28;20512;-75
2022/02/18 07:37:45;;;;;;;0.60;0.50;;;;;;;;;;5063549;28;20510;-74
2022/02/18 07:40:12;;;;;;;0.83;0.83;;;;;;;;;;5071581;28;20849;-74
2022/02/18 07:42:40;;;;;;;0.60;0.60;;;;;;;;;;5071682;28;20451;-73
2022/02/18 07:45:07;;;;;;;0.60;0.60;;;;;;;;;;5071767;28;20472;-74
2022/02/18 07:47:35;;;;;;;0.60;0.50;;;;;;;;;;5072483;28;20941;-74
2022/02/18 07:50:03;;;;;;;0.60;0.60;;;;;;;;;;5055831;28;20532;-75
2022/02/18 07:52:30;;;;;;;0.60;0.60;;;;;;;;;;5068544;28;20439;-74
2022/02/18 07:54:58;;;;;;;0.60;0.60;;;;;;;;;;5073028;28;20543;-74
2022/02/18 07:57:25;;;;;;;0.60;0.60;;;;;;;;;;5073476;28;20938;-75
2022/02/18 07:59:52;;;;;;;0.70;0.60;;;;;;;;;;5073274;28;20519;-74
2022/02/18 08:02:19;;;;;;;0.60;0.60;;;;;;;;;;5072171;28;20485;-75
2022/02/18 08:04:47;;;;;;;2.00;1.90;;;;;;;;;;5064055;28;20459;-74
2022/02/18 08:07:14;;;;;;;0.60;0.60;;;;;;;;;;5066963;28;20472;-74
2022/02/18 08:09:40;;;;;;;0.60;0.57;;;;;;;;;;5061270;28;20830;-74
2022/02/18 08:12:09;;;;;;;0.60;0.60;;;;;;;;;;5061128;28;20483;-75
2022/02/18 08:14:36;;;;;;;0.70;0.60;;;;;;;;;;5055264;28;20444;-74
2022/02/18 08:17:03;;;;;;;0.60;0.60;;;;;;;;;;5055634;28;20431;-75
2022/02/18 08:19:30;;;;;;;0.60;0.60;;;;;;;;;;5056551;28;20772;-75
2022/02/18 08:21:56;;;;;;;0.70;0.60;;;;;;;;;;5056829;28;20444;-75
2022/02/18 08:24:25;;;;;;;0.70;0.70;;;;;;;;;;5056641;28;20451;-75
2022/02/18 08:26:52;;;;;;;0.70;0.60;;;;;;;;;;5055891;28;20434;-75
2022/02/18 08:29:24;;;;;;;0.60;0.57;;;;;;;;;;5055011;28;20462;-75
2022/02/18 08:31:52;;;;;;;0.60;0.60;;;;;;;;;;5056817;28;20476;-75
2022/02/18 08:34:19;;;;;;;0.60;0.60;;;;;;;;;;5058451;28;20441;-76
2022/02/18 08:36:46;;;;;;;0.60;0.60;;;;;;;;;;5076429;28;20459;-76
2022/02/18 08:39:13;;;;;;;0.60;0.50;;;;;;;;;;5075591;28;20418;-76
2022/02/18 08:41:41;;;;;;;0.60;0.60;;;;;;;;;;5076081;28;20430;-76
2022/02/18 08:44:08;;;;;;;0.60;0.60;;;;;;;;;;5058357;28;20836;-76
2022/02/18 08:46:36;;;;;;;0.60;0.60;;;;;;;;;;5075673;28;20489;-77
2022/02/18 08:49:07;;;;;;;0.60;0.60;;;;;;;;;;5075181;28;20461;-76
2022/02/18 08:51:36;;;;;;;0.60;0.60;;;;;;;;;;5058467;28;20880;-76
2022/02/18 08:54:02;;;;;;;0.60;0.60;;;;;;;;;;5076370;28;20433;-76
2022/02/18 08:56:32;;;;;;;0.60;0.60;;;;;;;;;;5076340;28;20760;-76
2022/02/18 08:58:58;;;;;;;0.60;0.60;;;;;;;;;;5057657;28;20480;-76
2022/02/18 09:01:26;;;;;;;0.70;0.60;;;;;;;;;;5075166;28;20426;-75
2022/02/18 09:03:54;;;;;;;0.60;0.60;;;;;;;;;;5067762;28;20560;-76
2022/02/18 09:06:22;;;;;;;0.90;0.90;;;;;;;;;;5056284;28;20446;-76
2022/02/18 09:08:49;;;;;;;0.70;0.60;;;;;;;;;;5075172;28;20429;-76
2022/02/18 09:11:17;;;;;;;0.60;0.60;;;;;;;;;;5076125;28;20950;-75
2022/02/18 09:13:44;;;;;;;0.60;0.60;;;;;;;;;;5075110;28;20422;-76
2022/02/18 09:16:12;;;;;;;0.70;0.60;;;;;;;;;;5074859;28;20440;-75
2022/02/18 09:18:40;;;;;;;0.67;0.60;;;;;;;;;;5074911;28;20441;-76
2022/02/18 09:21:08;;;;;;;0.63;0.60;;;;;;;;;;5075383;28;20736;-75
2022/02/18 09:23:55;;;;;;;0.67;0.60;;;;;;;;;;5075176;28;20465;-76
2022/02/18 09:26:26;;;;;;;0.60;0.60;;;;;;;;;;5074214;28;20434;-76
2022/02/18 09:28:56;;;;;;;0.60;0.57;;;;;;;;;;5073871;28;20840;-76
2022/02/18 09:31:23;;;;;;;0.60;0.60;;;;;;;;;;5073738;28;20503;-76
2022/02/18 09:33:50;;;;;;;0.60;0.60;;;;;;;;;;5076174;28;20420;-75
2022/02/18 09:36:18;;;;;;;0.70;0.70;;;;;;;;;;5074678;28;20454;-76
2022/02/18 09:42:39;;;;;;;0.70;0.70;;;;;;;;;;5071839;28;20756;-76
2022/02/18 09:45:06;;;;;;;0.60;0.60;;;;;;;;;;5075175;28;20481;-76
2022/02/18 09:47:33;;;;;;;0.70;0.60;;;;;;;;;;5075322;28;20439;-76
2022/02/18 09:50:01;;;;;;;0.70;0.60;;;;;;;;;;5057271;28;20447;-77
2022/02/18 09:52:30;;;;;;;0.70;0.60;;;;;;;;;;5074318;28;20475;-76
2022/02/18 09:54:57;;;;;;;0.63;0.60;;;;;;;;;;5070881;28;20435;-75
2022/02/18 09:57:25;;;;;;;0.70;0.60;;;;;;;;;;5075536;28;20459;-75
2022/02/18 09:59:52;;;;;;;0.70;0.60;;;;;;;;;;5063594;28;20431;-76
2022/02/18 10:02:19;;;;;;;0.70;0.60;;;;;;;;;;5067075;28;20463;-76
2022/02/18 10:04:52;;;;;;;0.60;0.60;;;;;;;;;;5067473;28;20459;-76
2022/02/18 10:07:18;;;;;;;0.70;0.60;;;;;;;;;;5071587;28;20476;-76
2022/02/18 10:09:49;;;;;;;0.60;0.60;;;;;;;;;;5073347;28;20431;-76
2022/02/18 10:12:16;;;;;;;0.60;0.60;;;;;;;;;;5074116;28;20436;-76
2022/02/18 10:14:56;;;;;;;0.60;0.60;;;;;;;;;;5073114;28;20425;-76
2022/02/18 10:17:24;;;;;;;0.60;0.60;;;;;;;;;;5073193;28;20415;-77
2022/02/18 10:19:54;;;;;;;0.70;0.60;;;;;;;;;;5074983;28;20981;-75
2022/02/18 10:22:23;;;;;;;0.70;0.70;;;;;;;;;;5072461;28;20461;-76
2022/02/18 10:24:52;;;;;;;0.70;0.60;;;;;;;;;;5073637;28;20480;-75
2022/02/18 10:27:23;;;;;;;0.63;0.60;;;;;;;;;;5073494;28;21010;-75
2022/02/18 10:29:57;;;;;;;0.70;0.63;;;;;;;;;;5072978;28;20938;-76
2022/02/18 10:32:24;;;;;;;0.70;0.70;;;;;;;;;;5073111;28;20504;-75
2022/02/18 10:34:52;;;;;;;0.70;0.70;;;;;;;;;;5073419;28;20877;-76
2022/02/18 10:37:20;;;;;;;0.70;0.70;;;;;;;;;;5054272;28;20540;-75
2022/02/18 10:39:46;;;;;;;1.20;1.10;;;;;;;;;;5053538;28;20437;-76
2022/02/18 10:42:16;;;;;;;0.70;0.70;;;;;;;;;;5053196;28;20452;-77
2022/02/18 10:44:43;;;;;;;0.70;0.60;;;;;;;;;;5054193;28;20508;-76
2022/02/18 10:47:18;;;;;;;0.70;0.70;;;;;;;;;;5054391;28;20435;-78
2022/02/18 10:49:46;;;;;;;0.70;0.67;;;;;;;;;;5052944;28;20470;-76
2022/02/18 10:52:14;;;;;;;0.70;0.70;;;;;;;;;;5053996;28;20990;-77
2022/02/18 10:54:41;;;;;;;0.70;0.60;;;;;;;;;;5054695;28;20430;-77
2022/02/18 10:57:12;;;;;;;0.70;0.70;;;;;;;;;;5053519;28;20434;-79
2022/02/18 10:59:40;;;;;;;0.70;0.60;;;;;;;;;;5053039;28;20415;-79
2022/02/18 11:02:07;;;;;;;0.70;0.60;;;;;;;;;;5054173;28;20442;-77
2022/02/18 11:04:34;;;;;;;0.70;0.60;;;;;;;;;;5050259;28;21066;-79
2022/02/18 11:07:08;;;;;;;0.70;0.60;;;;;;;;;;5058204;28;20546;-79
2022/02/18 11:09:36;;;;;;;0.70;0.60;;;;;;;;;;5073470;28;20460;-77
2022/02/18 11:12:07;;;;;;;0.70;0.60;;;;;;;;;;5056618;28;20437;-77
2022/02/18 11:14:35;;;;;;;0.70;0.70;;;;;;;;;;5072091;28;20430;-75
2022/02/18 11:17:03;;;;;;;0.70;0.60;;;;;;;;;;5055879;28;20449;-77
2022/02/18 11:19:31;;;;;;;0.70;0.60;;;;;;;;;;5072872;28;20428;-79
2022/02/18 11:22:13;;;;;;;0.70;0.70;;;;;;;;;;5072467;28;20885;-78
2022/02/18 11:24:42;;;;;;;0.70;0.60;;;;;;;;;;5072393;28;20460;-79
2022/02/18 11:27:10;;;;;;;0.70;0.60;;;;;;;;;;5072282;28;20446;-79
2022/02/18 11:29:38;;;;;;;0.70;0.60;;;;;;;;;;5072037;28;20421;-78
2022/02/18 11:32:10;;;;;;;0.70;0.70;;;;;;;;;;5052703;28;20542;-79
2022/02/18 11:34:45;;;;;;;0.70;0.60;;;;;;;;;;5053097;28;20504;-79
2022/02/18 11:37:34;;;;;;;0.70;0.70;;;;;;;;;;5052607;28;20519;-77
2022/02/18 11:40:13;;;;;;;0.70;0.60;;;;;;;;;;5058084;28;20521;-79
2022/02/18 11:42:44;;;;;;;0.70;0.70;;;;;;;;;;5060328;28;20569;-75
2022/02/18 11:45:31;;;;;;;0.70;0.63;;;;;;;;;;5059380;28;20961;-75
2022/02/18 11:48:01;;;;;;;0.70;0.60;;;;;;;;;;5057624;28;20916;-79
2022/02/18 11:50:29;;;;;;;0.70;0.70;;;;;;;;;;5056084;28;20493;-78
2022/02/18 11:52:56;;;;;;;0.70;0.60;;;;;;;;;;5039720;28;20463;-77
2022/02/18 11:55:30;;;;;;;0.70;0.70;;;;;;;;;;5062868;28;20434;-77
2022/02/18 11:58:04;;;;;;;0.70;0.70;;;;;;;;;;5072035;28;20973;-77
2022/02/18 12:00:40;;;;;;;0.70;0.70;;;;;;;;;;5063046;28;20430;-77
2022/02/18 12:03:14;;;;;;;0.70;0.60;;;;;;;;;;5057131;28;20436;-77
2022/02/18 12:06:04;;;;;;;0.70;0.63;;;;;;;;;;5071519;28;20484;-79
2022/02/18 12:08:34;;;;;;;0.70;0.70;;;;;;;;;;5075801;28;20467;-80
2022/02/18 12:11:05;;;;;;;0.70;0.63;;;;;;;;;;5056166;28;20426;-78
2022/02/18 12:13:48;;;;;;;0.70;0.70;;;;;;;;;;5055762;28;20439;-78
2022/02/18 12:16:16;;;;;;;0.70;0.60;;;;;;;;;;5056319;28;20492;-76
2022/02/18 12:18:59;;;;;;;0.70;0.60;;;;;;;;;;5072623;28;20963;-77
2022/02/18 12:21:26;;;;;;;0.70;0.60;;;;;;;;;;5075414;28;20445;-77
2022/02/18 12:23:53;;;;;;;0.70;0.70;;;;;;;;;;5044184;28;21014;-77
2022/02/18 12:26:24;;;;;;;0.80;0.80;;;;;;;;;;5055798;28;20407;-75
2022/02/18 12:29:11;;;;;;;0.70;0.70;;;;;;;;;;5057544;28;20415;-75
2022/02/18 12:31:48;;;;;;;0.70;0.70;;;;;;;;;;5055190;28;20457;-75
2022/02/18 12:34:25;;;;;;;0.70;0.70;;;;;;;;;;5066453;28;20448;-76
2022/02/18 12:36:53;;;;;;;0.70;0.70;;;;;;;;;;5058989;28;20472;-77
2022/02/18 12:39:36;;;;;;;0.70;0.70;;;;;;;;;;5076239;28;20443;-75
2022/02/18 12:42:07;;;;;;;0.70;0.60;;;;;;;;;;5076728;28;20425;-78
2022/02/18 12:44:34;;;;;;;0.70;0.60;;;;;;;;;;5074913;28;20474;-75
2022/02/18 12:47:02;;;;;;;0.70;0.60;;;;;;;;;;5056511;28;20530;-77
2022/02/18 12:49:41;;;;;;;0.70;0.70;;;;;;;;;;5055689;28;20497;-77
2022/02/18 12:52:08;;;;;;;0.70;0.70;;;;;;;;;;5055795;28;20472;-80
2022/02/18 12:54:46;;;;;;;0.80;0.80;;;;;;;;;;5061273;28;21013;-78
2022/02/18 12:57:19;;;;;;;0.70;0.70;;;;;;;;;;5070729;28;20442;-78
2022/02/18 12:59:48;;;;;;;0.80;0.80;;;;;;;;;;5068995;28;20432;-80
2022/02/18 13:02:34;;;;;;;0.70;0.63;;;;;;;;;;5072024;28;20418;-79
2022/02/18 13:05:04;;;;;;;0.70;0.70;;;;;;;;;;5060221;28;20513;-76
2022/02/18 13:07:33;;;;;;;0.70;0.63;;;;;;;;;;5064062;28;20526;-76
2022/02/18 13:10:00;;;;;;;0.70;0.70;;;;;;;;;;5058695;28;20439;-74
2022/02/18 13:12:30;;;;;;;0.70;0.60;;;;;;;;;;5074594;28;20446;-76
2022/02/18 13:15:05;;;;;;;0.70;0.60;;;;;;;;;;5075638;28;20418;-78
2022/02/18 13:17:31;;;;;;;0.70;0.60;;;;;;;;;;5061341;28;20764;-75
2022/02/18 13:19:58;;;;;;;0.70;0.70;;;;;;;;;;5055318;28;20412;-77
2022/02/18 13:22:32;;;;;;;0.70;0.70;;;;;;;;;;5058908;28;20454;-77
2022/02/18 13:24:59;;;;;;;0.80;0.70;;;;;;;;;;5056678;28;21040;-75
2022/02/18 13:27:40;;;;;;;0.70;0.70;;;;;;;;;;5070613;28;20467;-78
2022/02/18 13:30:08;;;;;;;0.70;0.60;;;;;;;;;;5074351;28;20421;-81
2022/02/18 13:32:35;;;;;;;0.70;0.60;;;;;;;;;;5042860;28;20445;-78
2022/02/18 13:35:06;;;;;;;0.70;0.60;;;;;;;;;;5063045;28;20443;-75
2022/02/18 13:37:35;;;;;;;0.70;0.70;;;;;;;;;;5074421;28;20490;-75
2022/02/18 13:40:04;;;;;;;0.70;0.60;;;;;;;;;;5070829;28;20849;-77
2022/02/18 13:42:46;;;;;;;0.70;0.60;;;;;;;;;;5054985;28;20412;-77
2022/02/18 13:45:13;;;;;;;0.70;0.67;;;;;;;;;;5055958;28;20477;-74
2022/02/18 13:47:41;;;;;;;1.27;1.17;;;;;;;;;;5057041;28;20934;-75
2022/02/18 13:50:09;;;;;;;0.80;0.73;;;;;;;;;;5059395;28;20493;-75
2022/02/18 13:52:39;;;;;;;0.70;0.70;;;;;;;;;;5052609;28;20467;-74
2022/02/18 13:55:06;;;;;;;0.70;0.60;;;;;;;;;;5063885;28;20436;-74
2022/02/18 13:57:34;;;;;;;0.70;0.60;;;;;;;;;;5055365;28;20448;-78
2022/02/18 14:00:01;;;;;;;0.70;0.63;;;;;;;;;;5056057;28;20443;-74
2022/02/18 14:02:45;;;;;;;0.70;0.60;;;;;;;;;;5057598;28;20745;-75
2022/02/18 14:05:12;;;;;;;0.70;0.70;;;;;;;;;;5063566;28;20496;-77
2022/02/18 14:07:40;;;;;;;0.73;0.70;;;;;;;;;;5065334;28;20981;-74
2022/02/18 14:10:14;;;;;;;0.70;0.70;;;;;;;;;;5074330;28;20443;-73
2022/02/18 14:12:50;;;;;;;0.70;0.60;;;;;;;;;;5060348;28;20452;-76
2022/02/18 14:15:17;;;;;;;0.70;0.60;;;;;;;;;;5054962;28;20418;-80
2022/02/18 14:17:44;;;;;;;0.70;0.70;;;;;;;;;;5054608;28;20423;-78
2022/02/18 14:20:13;;;;;;;0.80;0.70;;;;;;;;;;5056054;28;20441;-75
2022/02/18 14:22:43;;;;;;;0.70;0.60;;;;;;;;;;5072494;28;20466;-73
2022/02/18 14:25:32;;;;;;;0.70;0.60;;;;;;;;;;5056578;28;20462;-77
2022/02/18 14:28:08;;;;;;;0.70;0.70;;;;;;;;;;5070727;28;21004;-76
2022/02/18 14:30:40;;;;;;;0.70;0.70;;;;;;;;;;5072792;28;20418;-78
2022/02/18 14:33:17;;;;;;;0.70;0.70;;;;;;;;;;5056393;28;20426;-75
2022/02/18 14:35:47;;;;;;;0.80;0.73;;;;;;;;;;5068344;28;20442;-72
2022/02/18 14:38:15;;;;;;;0.70;0.70;;;;;;;;;;5072245;28;21185;-72
2022/02/18 14:40:43;;;;;;;0.70;0.60;;;;;;;;;;5072901;28;20431;-71
2022/02/18 14:43:10;;;;;;;0.70;0.60;;;;;;;;;;5073952;28;20516;-74
2022/02/18 14:45:38;;;;;;;0.70;0.60;;;;;;;;;;5071813;28;20882;-71
2022/02/18 14:48:05;;;;;;;0.70;0.70;;;;;;;;;;5068501;28;20871;-73
2022/02/18 14:50:33;;;;;;;0.70;0.60;;;;;;;;;;5052627;28;20446;-74
2022/02/18 14:53:02;;;;;;;0.70;0.60;;;;;;;;;;5052306;28;20889;-72
2022/02/18 14:55:31;;;;;;;0.70;0.67;;;;;;;;;;5054841;28;20417;-73
2022/02/18 14:57:58;;;;;;;0.80;0.70;;;;;;;;;;5053914;28;20452;-76
2022/02/18 15:00:32;;;;;;;0.70;0.60;;;;;;;;;;5059624;28;20488;-72
2022/02/18 15:03:03;;;;;;;0.70;0.60;;;;;;;;;;5059074;28;20430;-72